Essex, Canada
Current Conditions -  °F | °C
As of 7:00 PM on Saturday 20 Dec 2014 (Local Time) from CYQG Reporting Station
Overcast Overcast  
Wind Chill: 28°   Ceiling: 2800
Heat Index: 28°   Visibility: 12mi
Dew Point: 25°   Wind: 2mph
Humidity: 86%   Direction: 120°ESE
Pressure: 30.28"   Gusts: NA
Location:  42.17°N, 82.82°W
Report Text: CYQG 210000Z 12002KT 12SM OVC028 M02/M04 A3028 RMK SC8 SLP264
Loading
Personal Weather Stations






























Interactive Weather Map New forecast layout! Learn more

10-Day Weather Forecast

Advertisements
Track Severe Weather on mobile